createdAt,value
2018-04-01T00:00:15.921Z,0
2018-04-01T00:01:23.988Z,0
2018-04-01T00:02:32.068Z,0
2018-04-01T00:03:40.086Z,0
2018-04-01T00:04:48.160Z,0
2018-04-01T00:05:56.180Z,0
2018-04-01T00:07:04.243Z,0
2018-04-01T00:08:12.301Z,0
2018-04-01T00:09:20.413Z,0
2018-04-01T00:10:28.475Z,0
2018-04-01T00:11:36.521Z,0
2018-04-01T00:12:44.587Z,0
2018-04-01T00:13:52.641Z,0
2018-04-01T00:15:00.639Z,0
2018-04-01T00:16:08.697Z,0
2018-04-01T00:17:16.756Z,0
2018-04-01T00:18:24.851Z,0
2018-04-01T00:19:32.881Z,0
2018-04-01T00:20:40.962Z,0
2018-04-01T00:21:49.035Z,0
2018-04-01T00:22:57.052Z,0
2018-04-01T00:24:05.119Z,0
2018-04-01T00:25:13.168Z,0
2018-04-01T00:26:21.248Z,0
2018-04-01T00:27:29.345Z,0
2018-04-01T00:28:37.348Z,0
2018-04-01T00:29:45.434Z,0
2018-04-01T00:30:53.536Z,0
2018-04-01T00:32:01.584Z,0
2018-04-01T00:33:09.657Z,0
2018-04-01T00:34:17.668Z,0
2018-04-01T00:35:25.740Z,0
2018-04-01T00:36:33.794Z,0
2018-04-01T00:37:41.878Z,0
2018-04-01T00:38:49.901Z,0
2018-04-01T00:39:57.940Z,0
2018-04-01T00:41:05.985Z,0
2018-04-01T00:42:14.042Z,0
2018-04-01T00:43:22.156Z,0
2018-04-01T00:44:30.212Z,0
2018-04-01T00:45:38.295Z,0
2018-04-01T00:46:46.370Z,0
2018-04-01T00:47:54.341Z,0
2018-04-01T00:49:02.423Z,0
2018-04-01T00:50:10.462Z,0
2018-04-01T00:51:18.547Z,0
2018-04-01T00:52:26.581Z,0
2018-04-01T00:53:34.727Z,0
2018-04-01T00:54:42.702Z,0
2018-04-01T00:55:50.824Z,0
2018-04-01T00:56:58.843Z,0
2018-04-01T00:58:06.920Z,0
2018-04-01T00:59:14.915Z,0
2018-04-01T01:00:22.978Z,0
2018-04-01T01:01:31.052Z,0
2018-04-01T01:02:39.103Z,0
2018-04-01T01:03:47.206Z,0
2018-04-01T01:04:55.236Z,0
2018-04-01T01:06:03.311Z,0
2018-04-01T01:07:11.361Z,0
2018-04-01T01:08:19.451Z,0
2018-04-01T01:09:27.490Z,0
2018-04-01T01:10:35.501Z,0
2018-04-01T01:11:43.581Z,0
2018-04-01T01:12:51.679Z,0
2018-04-01T01:13:59.771Z,0
2018-04-01T01:15:07.809Z,0
2018-04-01T01:16:15.869Z,0
2018-04-01T01:17:23.869Z,0
2018-04-01T01:18:31.923Z,0
2018-04-01T01:19:39.996Z,0
2018-04-01T01:20:48.083Z,0
2018-04-01T01:21:56.147Z,0
2018-04-01T01:23:04.249Z,0
2018-04-01T01:24:12.270Z,0
2018-04-01T01:25:20.341Z,0
2018-04-01T01:26:28.390Z,0
2018-04-01T01:27:36.403Z,0
2018-04-01T01:28:44.482Z,0
2018-04-01T01:29:52.597Z,0
2018-04-01T01:31:00.625Z,0
2018-04-01T01:32:08.682Z,0
2018-04-01T01:33:16.729Z,0
2018-04-01T01:34:24.748Z,0
2018-04-01T01:35:32.881Z,0
2018-04-01T01:36:40.895Z,0
2018-04-01T01:37:48.984Z,0
2018-04-01T01:38:56.981Z,0
2018-04-01T01:40:05.094Z,0
2018-04-01T01:41:13.144Z,0
2018-04-01T01:42:21.221Z,0
2018-04-01T01:43:29.244Z,0
2018-04-01T01:44:37.309Z,0
2018-04-01T01:45:45.341Z,0
2018-04-01T01:46:53.468Z,0
2018-04-01T01:48:01.559Z,0
2018-04-01T01:49:09.595Z,0
2018-04-01T01:50:17.632Z,0
2018-04-01T01:51:25.726Z,0
2018-04-01T01:52:33.795Z,0
2018-04-01T01:53:41.805Z,0
2018-04-01T01:54:49.867Z,0
2018-04-01T01:55:57.871Z,0
2018-04-01T01:57:05.985Z,0
2018-04-01T01:58:14.037Z,0
2018-04-01T01:59:22.084Z,0
2018-04-01T02:00:30.180Z,0
2018-04-01T02:01:38.248Z,0
2018-04-01T02:02:46.276Z,0
2018-04-01T02:03:54.967Z,0
2018-04-01T02:05:02.344Z,0
2018-04-01T02:06:10.452Z,0
2018-04-01T02:07:18.490Z,0
2018-04-01T02:08:26.566Z,0
2018-04-01T02:09:34.649Z,0
2018-04-01T02:10:42.704Z,0
2018-04-01T02:11:50.787Z,0
2018-04-01T02:12:58.922Z,0
2018-04-01T02:14:06.822Z,0
2018-04-01T02:15:14.870Z,0
2018-04-01T02:16:22.943Z,0
2018-04-01T02:17:31.036Z,0
2018-04-01T02:18:39.194Z,0
2018-04-01T02:19:47.107Z,0
2018-04-01T02:20:55.157Z,0
2018-04-01T02:22:03.224Z,0
2018-04-01T02:23:11.285Z,0
2018-04-01T02:24:19.339Z,0
2018-04-01T02:25:27.453Z,0
2018-04-01T02:26:35.494Z,0
2018-04-01T02:27:43.512Z,0
2018-04-01T02:28:51.564Z,0
2018-04-01T02:29:59.676Z,0
2018-04-01T02:31:07.762Z,0
2018-04-01T02:32:15.809Z,0
2018-04-01T02:33:23.876Z,0
2018-04-01T02:34:31.892Z,0
2018-04-01T02:35:39.918Z,0
2018-04-01T02:36:48.020Z,0
2018-04-01T02:37:56.037Z,0
2018-04-01T02:39:04.101Z,0
2018-04-01T02:40:12.215Z,0
2018-04-01T02:41:20.293Z,0
2018-04-01T02:42:28.335Z,0
2018-04-01T02:43:36.331Z,0
2018-04-01T02:44:44.397Z,0
2018-04-01T02:45:52.491Z,0
2018-04-01T02:47:00.525Z,0
2018-04-01T02:48:08.574Z,0
2018-04-01T02:49:16.654Z,0
2018-04-01T02:50:24.701Z,0
2018-04-01T02:51:32.742Z,0
2018-04-01T02:52:40.804Z,0
2018-04-01T02:53:48.900Z,0
2018-04-01T02:54:56.989Z,0
2018-04-01T02:56:04.978Z,0
2018-04-01T02:57:13.063Z,0
2018-04-01T02:58:21.127Z,0
2018-04-01T02:59:29.199Z,0
2018-04-01T03:00:37.251Z,0
2018-04-01T03:01:45.291Z,0
2018-04-01T03:02:53.395Z,0
2018-04-01T03:04:01.466Z,0
2018-04-01T03:05:09.542Z,0
2018-04-01T03:06:17.627Z,0
2018-04-01T03:07:25.558Z,0
2018-04-01T03:08:33.681Z,0
2018-04-01T03:09:41.717Z,0
2018-04-01T03:10:49.784Z,0
2018-04-01T03:11:57.846Z,0
2018-04-01T03:13:05.939Z,0
2018-04-01T03:14:14.001Z,0
2018-04-01T03:15:22.018Z,0
2018-04-01T03:16:30.048Z,0
2018-04-01T03:17:38.113Z,0
2018-04-01T03:18:46.206Z,0
2018-04-01T03:19:54.221Z,0
2018-04-01T03:21:02.279Z,0
2018-04-01T03:22:10.343Z,0
2018-04-01T03:23:18.427Z,0
2018-04-01T03:24:26.490Z,0
2018-04-01T03:25:34.592Z,0
2018-04-01T03:26:42.568Z,0
2018-04-01T03:27:50.614Z,0
2018-04-01T03:28:58.694Z,0
2018-04-01T03:30:06.738Z,0
2018-04-01T03:31:14.808Z,0
2018-04-01T03:32:22.895Z,0
2018-04-01T03:33:30.928Z,0
2018-04-01T03:34:39.016Z,0
2018-04-01T03:35:47.142Z,0
2018-04-01T03:36:55.174Z,0
2018-04-01T03:38:03.153Z,0
2018-04-01T03:39:11.208Z,0
2018-04-01T03:40:19.264Z,0
2018-04-01T03:41:27.320Z,0
2018-04-01T03:42:35.433Z,0
2018-04-01T03:43:43.503Z,0
2018-04-01T03:44:51.593Z,0
2018-04-01T03:45:59.562Z,0
2018-04-01T03:47:07.627Z,0
2018-04-01T03:48:15.733Z,0
2018-04-01T03:49:23.805Z,0
2018-04-01T03:50:31.878Z,0
2018-04-01T03:51:39.917Z,0
2018-04-01T03:52:47.899Z,0
2018-04-01T03:53:56.016Z,0
2018-04-01T03:55:04.095Z,0
2018-04-01T03:56:12.149Z,0
2018-04-01T03:57:20.227Z,0
2018-04-01T03:58:28.263Z,0
2018-04-01T03:59:36.260Z,0
2018-04-01T04:00:44.359Z,0
2018-04-01T04:01:52.436Z,0
2018-04-01T04:03:00.482Z,0
2018-04-01T04:04:08.588Z,0
2018-04-01T04:05:16.648Z,0
2018-04-01T04:06:24.665Z,0
2018-04-01T04:07:32.753Z,0
2018-04-01T04:08:40.810Z,0
2018-04-01T04:09:48.888Z,0
2018-04-01T04:10:56.923Z,0
2018-04-01T04:12:04.977Z,0
2018-04-01T04:13:13.021Z,0
2018-04-01T04:14:21.085Z,0
2018-04-01T04:15:29.137Z,0
2018-04-01T04:16:37.159Z,0
2018-04-01T04:17:45.229Z,0
2018-04-01T04:18:53.361Z,0
2018-04-01T04:20:01.398Z,0
2018-04-01T04:21:09.465Z,0
2018-04-01T04:22:17.525Z,0
2018-04-01T04:23:25.586Z,0
2018-04-01T04:24:33.574Z,0
2018-04-01T04:25:41.633Z,0
2018-04-01T04:26:49.692Z,0
2018-04-01T04:27:57.750Z,0
2018-04-01T04:29:05.904Z,0
2018-04-01T04:30:14.015Z,0
2018-04-01T04:31:22.079Z,0
2018-04-01T04:32:30.098Z,0
2018-04-01T04:33:38.141Z,0
2018-04-01T04:34:46.207Z,0
2018-04-01T04:35:54.257Z,0
2018-04-01T04:37:02.386Z,0
2018-04-01T04:38:10.382Z,0
2018-04-01T04:39:18.442Z,0
2018-04-01T04:40:26.487Z,0
2018-04-01T04:41:34.544Z,4
2018-04-01T04:42:42.613Z,0
2018-04-01T04:43:50.665Z,4
2018-04-01T04:44:58.731Z,4
2018-04-01T04:46:06.821Z,4
2018-04-01T04:47:14.881Z,8
2018-04-01T04:48:22.976Z,8
2018-04-01T04:49:31.018Z,16
2018-04-01T04:50:39.098Z,16
2018-04-01T04:51:47.108Z,16
2018-04-01T04:52:55.199Z,16
2018-04-01T04:54:03.204Z,20
2018-04-01T04:55:11.334Z,16
2018-04-01T04:56:19.400Z,12
2018-04-01T04:57:27.429Z,16
2018-04-01T04:58:35.435Z,16
2018-04-01T04:59:43.499Z,32
2018-04-01T05:00:51.549Z,48
2018-04-01T05:01:59.636Z,60
2018-04-01T05:03:07.686Z,64
2018-04-01T05:04:15.819Z,84
2018-04-01T05:05:23.833Z,104
2018-04-01T05:06:31.919Z,112
2018-04-01T05:07:39.985Z,120
2018-04-01T05:08:48.027Z,124
2018-04-01T05:09:56.097Z,128
2018-04-01T05:11:04.672Z,140
2018-04-01T05:12:21.776Z,148
2018-04-01T05:14:00.695Z,164
2018-04-01T05:15:08.763Z,172
2018-04-01T05:16:16.818Z,192
2018-04-01T05:17:25.263Z,200
2018-04-01T05:18:33.654Z,204
2018-04-01T05:19:42.601Z,216
2018-04-01T05:20:49.120Z,224
2018-04-01T05:21:57.179Z,252
2018-04-01T05:23:09.957Z,300
2018-04-01T05:24:16.502Z,356
2018-04-01T05:26:32.666Z,504
2018-04-01T05:27:40.690Z,572
2018-04-01T05:28:48.777Z,664
2018-04-01T05:29:56.823Z,832
2018-04-01T05:31:04.902Z,1044
2018-04-01T05:32:12.980Z,1240
2018-04-01T05:33:21.291Z,1208
2018-04-01T05:34:29.083Z,984
2018-04-01T05:35:37.145Z,848
2018-04-01T05:36:45.126Z,784
2018-04-01T05:37:53.256Z,756
2018-04-01T05:39:01.247Z,748
2018-04-01T05:40:09.370Z,740
2018-04-01T05:41:17.423Z,848
2018-04-01T05:42:25.474Z,976
2018-04-01T05:43:33.570Z,1108
2018-04-01T05:44:41.557Z,1096
2018-04-01T05:45:49.608Z,1036
2018-04-01T05:46:57.703Z,1152
2018-04-01T05:48:05.782Z,1048
2018-04-01T05:49:13.838Z,1088
2018-04-01T05:50:21.919Z,1052
2018-04-01T05:51:29.985Z,1108
2018-04-01T05:52:37.973Z,1360
2018-04-01T05:53:46.048Z,1560
2018-04-01T05:54:54.091Z,1700
2018-04-01T05:57:11.006Z,1632
2018-04-01T05:58:19.048Z,1988
2018-04-01T05:59:27.060Z,2136
2018-04-01T06:00:35.147Z,1916
2018-04-01T06:01:43.168Z,1644
2018-04-01T06:02:51.239Z,1496
2018-04-01T06:03:59.338Z,1396
2018-04-01T06:05:07.327Z,1396
2018-04-01T06:06:15.446Z,1304
2018-04-01T06:07:23.530Z,1208
2018-04-01T06:08:31.644Z,1196
2018-04-01T06:09:39.635Z,1248
2018-04-01T06:10:47.652Z,1304
2018-04-01T06:11:55.753Z,1492
2018-04-01T06:13:03.798Z,2172
2018-04-01T06:14:11.821Z,2412
2018-04-01T06:15:19.983Z,2788
2018-04-01T06:16:27.986Z,3520
2018-04-01T06:17:36.088Z,4240
